sensor_id;sensor_type;location;lat;lon;timestamp;P1;durP1;ratioP1;P2;durP2;ratioP2
39300;SDS011;25019;42.626;23.380;2024-02-28T00:01:50;20.43;;;12.37;;
39300;SDS011;25019;42.626;23.380;2024-02-28T00:04:16;21.13;;;11.30;;
39300;SDS011;25019;42.626;23.380;2024-02-28T00:06:42;21.00;;;11.87;;
39300;SDS011;25019;42.626;23.380;2024-02-28T00:09:08;20.27;;;11.87;;
39300;SDS011;25019;42.626;23.380;2024-02-28T00:11:33;20.97;;;11.57;;
39300;SDS011;25019;42.626;23.380;2024-02-28T00:13:59;17.73;;;11.00;;
39300;SDS011;25019;42.626;23.380;2024-02-28T00:16:25;19.70;;;12.30;;
39300;SDS011;25019;42.626;23.380;2024-02-28T00:18:51;22.73;;;12.33;;
39300;SDS011;25019;42.626;23.380;2024-02-28T00:21:17;22.17;;;12.13;;
39300;SDS011;25019;42.626;23.380;2024-02-28T00:23:42;21.00;;;12.47;;
39300;SDS011;25019;42.626;23.380;2024-02-28T00:26:08;21.13;;;12.67;;
39300;SDS011;25019;42.626;23.380;2024-02-28T00:28:33;20.00;;;12.10;;
39300;SDS011;25019;42.626;23.380;2024-02-28T00:30:59;22.83;;;12.30;;
39300;SDS011;25019;42.626;23.380;2024-02-28T00:33:25;19.80;;;12.17;;
39300;SDS011;25019;42.626;23.380;2024-02-28T00:35:50;20.73;;;13.13;;
39300;SDS011;25019;42.626;23.380;2024-02-28T00:38:18;19.03;;;11.87;;
39300;SDS011;25019;42.626;23.380;2024-02-28T00:40:44;23.30;;;12.57;;
39300;SDS011;25019;42.626;23.380;2024-02-28T00:43:10;24.90;;;12.47;;
39300;SDS011;25019;42.626;23.380;2024-02-28T00:45:35;21.37;;;11.83;;
39300;SDS011;25019;42.626;23.380;2024-02-28T00:48:01;23.73;;;12.30;;
39300;SDS011;25019;42.626;23.380;2024-02-28T00:50:27;21.60;;;12.50;;
39300;SDS011;25019;42.626;23.380;2024-02-28T00:52:52;23.77;;;12.13;;
39300;SDS011;25019;42.626;23.380;2024-02-28T00:55:18;17.60;;;12.10;;
39300;SDS011;25019;42.626;23.380;2024-02-28T00:57:44;20.43;;;12.03;;
39300;SDS011;25019;42.626;23.380;2024-02-28T01:00:10;23.40;;;13.37;;
39300;SDS011;25019;42.626;23.380;2024-02-28T01:02:36;22.17;;;12.50;;
39300;SDS011;25019;42.626;23.380;2024-02-28T01:05:01;22.77;;;13.17;;
39300;SDS011;25019;42.626;23.380;2024-02-28T01:07:27;28.57;;;14.10;;
39300;SDS011;25019;42.626;23.380;2024-02-28T01:09:53;21.90;;;13.43;;
39300;SDS011;25019;42.626;23.380;2024-02-28T01:12:19;24.87;;;13.87;;
39300;SDS011;25019;42.626;23.380;2024-02-28T01:14:44;21.73;;;13.03;;
39300;SDS011;25019;42.626;23.380;2024-02-28T01:17:10;23.53;;;13.90;;
39300;SDS011;25019;42.626;23.380;2024-02-28T01:19:36;22.67;;;12.80;;
39300;SDS011;25019;42.626;23.380;2024-02-28T01:22:01;23.60;;;13.03;;
39300;SDS011;25019;42.626;23.380;2024-02-28T01:24:27;26.73;;;14.27;;
39300;SDS011;25019;42.626;23.380;2024-02-28T01:26:53;20.80;;;12.43;;
39300;SDS011;25019;42.626;23.380;2024-02-28T01:29:18;21.87;;;12.80;;
39300;SDS011;25019;42.626;23.380;2024-02-28T01:31:44;23.00;;;13.43;;
39300;SDS011;25019;42.626;23.380;2024-02-28T01:34:10;23.10;;;15.07;;
39300;SDS011;25019;42.626;23.380;2024-02-28T01:36:36;20.13;;;13.30;;
39300;SDS011;25019;42.626;23.380;2024-02-28T01:39:01;23.77;;;14.00;;
39300;SDS011;25019;42.626;23.380;2024-02-28T01:41:28;20.57;;;13.10;;
39300;SDS011;25019;42.626;23.380;2024-02-28T01:43:54;21.30;;;12.87;;
39300;SDS011;25019;42.626;23.380;2024-02-28T01:46:24;23.57;;;13.90;;
39300;SDS011;25019;42.626;23.380;2024-02-28T01:48:52;26.50;;;13.87;;
39300;SDS011;25019;42.626;23.380;2024-02-28T01:51:20;23.63;;;13.67;;
39300;SDS011;25019;42.626;23.380;2024-02-28T01:53:47;25.67;;;14.27;;
39300;SDS011;25019;42.626;23.380;2024-02-28T01:56:15;24.20;;;14.13;;
39300;SDS011;25019;42.626;23.380;2024-02-28T01:58:42;23.50;;;14.47;;
39300;SDS011;25019;42.626;23.380;2024-02-28T02:01:12;26.17;;;15.13;;
39300;SDS011;25019;42.626;23.380;2024-02-28T02:03:43;27.63;;;14.27;;
39300;SDS011;25019;42.626;23.380;2024-02-28T02:06:09;23.47;;;14.63;;
39300;SDS011;25019;42.626;23.380;2024-02-28T02:08:36;22.93;;;13.30;;
39300;SDS011;25019;42.626;23.380;2024-02-28T02:11:02;23.30;;;14.27;;
39300;SDS011;25019;42.626;23.380;2024-02-28T02:13:28;22.63;;;14.33;;
39300;SDS011;25019;42.626;23.380;2024-02-28T02:15:54;23.03;;;13.80;;
39300;SDS011;25019;42.626;23.380;2024-02-28T02:18:19;24.20;;;13.27;;
39300;SDS011;25019;42.626;23.380;2024-02-28T02:20:46;21.83;;;13.50;;
39300;SDS011;25019;42.626;23.380;2024-02-28T02:23:15;24.10;;;14.07;;
39300;SDS011;25019;42.626;23.380;2024-02-28T02:25:47;23.07;;;13.40;;
39300;SDS011;25019;42.626;23.380;2024-02-28T02:28:13;24.37;;;14.60;;
39300;SDS011;25019;42.626;23.380;2024-02-28T02:30:40;24.37;;;14.33;;
39300;SDS011;25019;42.626;23.380;2024-02-28T02:33:10;23.60;;;14.30;;
39300;SDS011;25019;42.626;23.380;2024-02-28T02:35:36;24.87;;;14.03;;
39300;SDS011;25019;42.626;23.380;2024-02-28T02:38:02;22.33;;;14.07;;
39300;SDS011;25019;42.626;23.380;2024-02-28T02:40:28;26.87;;;14.90;;
39300;SDS011;25019;42.626;23.380;2024-02-28T02:42:54;24.30;;;13.63;;
39300;SDS011;25019;42.626;23.380;2024-02-28T02:45:19;26.00;;;14.77;;
39300;SDS011;25019;42.626;23.380;2024-02-28T02:47:45;26.40;;;14.63;;
39300;SDS011;25019;42.626;23.380;2024-02-28T02:50:11;22.30;;;13.00;;
39300;SDS011;25019;42.626;23.380;2024-02-28T02:52:37;23.80;;;13.67;;
39300;SDS011;25019;42.626;23.380;2024-02-28T02:55:03;30.87;;;13.90;;
39300;SDS011;25019;42.626;23.380;2024-02-28T02:57:29;27.87;;;13.73;;
39300;SDS011;25019;42.626;23.380;2024-02-28T02:59:57;24.63;;;13.67;;
39300;SDS011;25019;42.626;23.380;2024-02-28T03:02:23;23.93;;;14.13;;
39300;SDS011;25019;42.626;23.380;2024-02-28T03:04:48;25.43;;;14.27;;
39300;SDS011;25019;42.626;23.380;2024-02-28T03:07:14;24.43;;;14.10;;
39300;SDS011;25019;42.626;23.380;2024-02-28T03:09:40;21.47;;;12.90;;
39300;SDS011;25019;42.626;23.380;2024-02-28T03:12:06;24.67;;;14.20;;
39300;SDS011;25019;42.626;23.380;2024-02-28T03:14:32;21.13;;;13.03;;
39300;SDS011;25019;42.626;23.380;2024-02-28T03:16:58;22.23;;;13.83;;
39300;SDS011;25019;42.626;23.380;2024-02-28T03:19:24;25.80;;;13.20;;
39300;SDS011;25019;42.626;23.380;2024-02-28T03:21:49;23.73;;;14.07;;
39300;SDS011;25019;42.626;23.380;2024-02-28T03:24:15;23.57;;;13.13;;
39300;SDS011;25019;42.626;23.380;2024-02-28T03:26:42;24.13;;;13.37;;
39300;SDS011;25019;42.626;23.380;2024-02-28T03:29:08;22.73;;;12.90;;
39300;SDS011;25019;42.626;23.380;2024-02-28T03:31:34;25.67;;;14.33;;
39300;SDS011;25019;42.626;23.380;2024-02-28T03:33:59;19.20;;;12.93;;
39300;SDS011;25019;42.626;23.380;2024-02-28T03:36:27;27.07;;;13.53;;
39300;SDS011;25019;42.626;23.380;2024-02-28T03:38:54;22.13;;;13.80;;
39300;SDS011;25019;42.626;23.380;2024-02-28T03:41:19;23.83;;;14.23;;
39300;SDS011;25019;42.626;23.380;2024-02-28T03:43:45;23.37;;;13.00;;
39300;SDS011;25019;42.626;23.380;2024-02-28T03:46:10;23.87;;;13.90;;
39300;SDS011;25019;42.626;23.380;2024-02-28T03:48:36;23.20;;;13.77;;
39300;SDS011;25019;42.626;23.380;2024-02-28T03:51:02;29.60;;;14.80;;
39300;SDS011;25019;42.626;23.380;2024-02-28T03:53:28;25.53;;;13.87;;
39300;SDS011;25019;42.626;23.380;2024-02-28T03:55:53;25.63;;;14.53;;
39300;SDS011;25019;42.626;23.380;2024-02-28T03:58:19;27.37;;;14.67;;
39300;SDS011;25019;42.626;23.380;2024-02-28T04:00:45;23.83;;;14.13;;
39300;SDS011;25019;42.626;23.380;2024-02-28T04:03:11;28.20;;;14.33;;
39300;SDS011;25019;42.626;23.380;2024-02-28T04:05:39;25.43;;;15.23;;
39300;SDS011;25019;42.626;23.380;2024-02-28T04:08:05;25.13;;;14.43;;
39300;SDS011;25019;42.626;23.380;2024-02-28T04:10:31;24.00;;;14.73;;
39300;SDS011;25019;42.626;23.380;2024-02-28T04:12:56;24.13;;;14.67;;
39300;SDS011;25019;42.626;23.380;2024-02-28T04:15:22;26.07;;;13.60;;
39300;SDS011;25019;42.626;23.380;2024-02-28T04:17:51;23.53;;;14.37;;
39300;SDS011;25019;42.626;23.380;2024-02-28T04:20:17;25.83;;;14.93;;
39300;SDS011;25019;42.626;23.380;2024-02-28T04:22:42;29.63;;;17.70;;
39300;SDS011;25019;42.626;23.380;2024-02-28T04:25:08;37.77;;;21.50;;
39300;SDS011;25019;42.626;23.380;2024-02-28T04:27:35;26.33;;;15.83;;
39300;SDS011;25019;42.626;23.380;2024-02-28T04:30:01;27.70;;;15.60;;
39300;SDS011;25019;42.626;23.380;2024-02-28T04:32:27;24.13;;;14.67;;
39300;SDS011;25019;42.626;23.380;2024-02-28T04:34:53;28.30;;;14.87;;
39300;SDS011;25019;42.626;23.380;2024-02-28T04:37:19;23.77;;;13.83;;
39300;SDS011;25019;42.626;23.380;2024-02-28T04:39:44;26.00;;;15.60;;
39300;SDS011;25019;42.626;23.380;2024-02-28T04:42:10;25.63;;;15.00;;
39300;SDS011;25019;42.626;23.380;2024-02-28T04:44:36;25.83;;;14.47;;
39300;SDS011;25019;42.626;23.380;2024-02-28T04:47:01;22.57;;;14.20;;
39300;SDS011;25019;42.626;23.380;2024-02-28T04:49:27;22.03;;;13.93;;
39300;SDS011;25019;42.626;23.380;2024-02-28T04:51:53;24.10;;;14.13;;
39300;SDS011;25019;42.626;23.380;2024-02-28T04:54:19;24.83;;;15.43;;
39300;SDS011;25019;42.626;23.380;2024-02-28T04:56:45;28.43;;;15.17;;
39300;SDS011;25019;42.626;23.380;2024-02-28T04:59:11;26.40;;;15.17;;
39300;SDS011;25019;42.626;23.380;2024-02-28T05:01:38;27.80;;;14.90;;
39300;SDS011;25019;42.626;23.380;2024-02-28T05:04:05;25.83;;;14.23;;
39300;SDS011;25019;42.626;23.380;2024-02-28T05:06:31;22.90;;;13.33;;
39300;SDS011;25019;42.626;23.380;2024-02-28T05:08:57;22.47;;;13.50;;
39300;SDS011;25019;42.626;23.380;2024-02-28T05:11:23;22.53;;;14.13;;
39300;SDS011;25019;42.626;23.380;2024-02-28T05:13:49;25.20;;;13.23;;
39300;SDS011;25019;42.626;23.380;2024-02-28T05:16:15;24.70;;;13.97;;
39300;SDS011;25019;42.626;23.380;2024-02-28T05:18:41;22.77;;;13.77;;
39300;SDS011;25019;42.626;23.380;2024-02-28T05:21:07;20.10;;;12.97;;
39300;SDS011;25019;42.626;23.380;2024-02-28T05:23:33;20.37;;;13.63;;
39300;SDS011;25019;42.626;23.380;2024-02-28T05:25:59;23.90;;;13.27;;
39300;SDS011;25019;42.626;23.380;2024-02-28T05:28:35;26.87;;;14.20;;
39300;SDS011;25019;42.626;23.380;2024-02-28T05:31:02;21.00;;;13.03;;
39300;SDS011;25019;42.626;23.380;2024-02-28T05:33:29;27.17;;;12.30;;
39300;SDS011;25019;42.626;23.380;2024-02-28T05:35:55;22.63;;;12.43;;
39300;SDS011;25019;42.626;23.380;2024-02-28T05:38:20;24.07;;;13.23;;
39300;SDS011;25019;42.626;23.380;2024-02-28T05:40:46;23.87;;;13.23;;
39300;SDS011;25019;42.626;23.380;2024-02-28T05:43:12;19.93;;;12.40;;
39300;SDS011;25019;42.626;23.380;2024-02-28T05:45:38;20.00;;;12.13;;
39300;SDS011;25019;42.626;23.380;2024-02-28T05:48:03;22.47;;;12.50;;
39300;SDS011;25019;42.626;23.380;2024-02-28T05:50:29;21.83;;;12.70;;
39300;SDS011;25019;42.626;23.380;2024-02-28T05:52:57;20.63;;;12.23;;
39300;SDS011;25019;42.626;23.380;2024-02-28T05:55:22;19.50;;;12.23;;
39300;SDS011;25019;42.626;23.380;2024-02-28T05:57:49;19.53;;;11.87;;
39300;SDS011;25019;42.626;23.380;2024-02-28T06:00:15;23.23;;;12.63;;
39300;SDS011;25019;42.626;23.380;2024-02-28T06:02:40;18.53;;;10.90;;
39300;SDS011;25019;42.626;23.380;2024-02-28T06:05:07;15.57;;;10.40;;
39300;SDS011;25019;42.626;23.380;2024-02-28T06:07:33;19.50;;;11.40;;
39300;SDS011;25019;42.626;23.380;2024-02-28T06:09:59;18.87;;;11.37;;
39300;SDS011;25019;42.626;23.380;2024-02-28T06:12:25;22.30;;;12.03;;
39300;SDS011;25019;42.626;23.380;2024-02-28T06:14:50;18.80;;;12.70;;
39300;SDS011;25019;42.626;23.380;2024-02-28T06:17:16;26.17;;;12.03;;
39300;SDS011;25019;42.626;23.380;2024-02-28T06:19:42;19.57;;;11.63;;
39300;SDS011;25019;42.626;23.380;2024-02-28T06:22:07;23.50;;;12.37;;
39300;SDS011;25019;42.626;23.380;2024-02-28T06:24:33;21.27;;;12.03;;
39300;SDS011;25019;42.626;23.380;2024-02-28T06:27:00;22.10;;;13.37;;
39300;SDS011;25019;42.626;23.380;2024-02-28T06:29:25;22.93;;;12.57;;
39300;SDS011;25019;42.626;23.380;2024-02-28T06:31:51;25.47;;;15.60;;
39300;SDS011;25019;42.626;23.380;2024-02-28T06:34:17;26.90;;;13.50;;
39300;SDS011;25019;42.626;23.380;2024-02-28T06:36:44;22.87;;;12.60;;
39300;SDS011;25019;42.626;23.380;2024-02-28T06:39:09;21.73;;;12.87;;
39300;SDS011;25019;42.626;23.380;2024-02-28T06:41:35;24.57;;;13.13;;
39300;SDS011;25019;42.626;23.380;2024-02-28T06:44:01;22.57;;;13.23;;
39300;SDS011;25019;42.626;23.380;2024-02-28T06:46:26;23.20;;;13.37;;
39300;SDS011;25019;42.626;23.380;2024-02-28T06:48:52;26.53;;;14.60;;
39300;SDS011;25019;42.626;23.380;2024-02-28T06:51:18;27.30;;;13.10;;
39300;SDS011;25019;42.626;23.380;2024-02-28T06:53:44;24.67;;;13.73;;
39300;SDS011;25019;42.626;23.380;2024-02-28T06:56:09;24.07;;;14.70;;
39300;SDS011;25019;42.626;23.380;2024-02-28T06:58:35;28.07;;;14.17;;
39300;SDS011;25019;42.626;23.380;2024-02-28T07:01:01;27.83;;;15.03;;
39300;SDS011;25019;42.626;23.380;2024-02-28T07:03:26;24.90;;;14.07;;
39300;SDS011;25019;42.626;23.380;2024-02-28T07:05:52;24.50;;;14.53;;
39300;SDS011;25019;42.626;23.380;2024-02-28T07:08:20;26.80;;;15.13;;
39300;SDS011;25019;42.626;23.380;2024-02-28T07:10:46;25.13;;;14.50;;
39300;SDS011;25019;42.626;23.380;2024-02-28T07:13:14;24.43;;;13.40;;
39300;SDS011;25019;42.626;23.380;2024-02-28T07:15:40;29.10;;;15.00;;
39300;SDS011;25019;42.626;23.380;2024-02-28T07:18:07;24.63;;;15.23;;
39300;SDS011;25019;42.626;23.380;2024-02-28T07:20:33;28.80;;;14.90;;
39300;SDS011;25019;42.626;23.380;2024-02-28T07:22:59;28.70;;;15.20;;
39300;SDS011;25019;42.626;23.380;2024-02-28T07:25:25;25.83;;;14.57;;
39300;SDS011;25019;42.626;23.380;2024-02-28T07:27:51;27.97;;;14.37;;
39300;SDS011;25019;42.626;23.380;2024-02-28T07:30:16;26.10;;;14.37;;
39300;SDS011;25019;42.626;23.380;2024-02-28T07:32:42;23.50;;;13.43;;
39300;SDS011;25019;42.626;23.380;2024-02-28T07:35:08;26.03;;;13.73;;
39300;SDS011;25019;42.626;23.380;2024-02-28T07:37:33;26.40;;;13.70;;
39300;SDS011;25019;42.626;23.380;2024-02-28T07:39:59;28.40;;;14.00;;
39300;SDS011;25019;42.626;23.380;2024-02-28T07:42:25;27.50;;;14.03;;
39300;SDS011;25019;42.626;23.380;2024-02-28T07:44:51;21.60;;;13.57;;
39300;SDS011;25019;42.626;23.380;2024-02-28T07:47:21;27.20;;;14.13;;
39300;SDS011;25019;42.626;23.380;2024-02-28T07:49:47;25.27;;;13.67;;
39300;SDS011;25019;42.626;23.380;2024-02-28T07:52:13;28.73;;;14.83;;
39300;SDS011;25019;42.626;23.380;2024-02-28T07:54:41;25.90;;;13.40;;
39300;SDS011;25019;42.626;23.380;2024-02-28T07:57:08;22.43;;;14.43;;
39300;SDS011;25019;42.626;23.380;2024-02-28T07:59:41;20.63;;;13.57;;
39300;SDS011;25019;42.626;23.380;2024-02-28T08:02:07;25.60;;;14.27;;
39300;SDS011;25019;42.626;23.380;2024-02-28T08:04:33;25.17;;;14.53;;
39300;SDS011;25019;42.626;23.380;2024-02-28T08:06:59;24.70;;;13.37;;
39300;SDS011;25019;42.626;23.380;2024-02-28T08:09:25;21.47;;;12.77;;
39300;SDS011;25019;42.626;23.380;2024-02-28T08:11:51;23.33;;;12.73;;
39300;SDS011;25019;42.626;23.380;2024-02-28T08:14:16;24.50;;;12.20;;
39300;SDS011;25019;42.626;23.380;2024-02-28T08:16:43;20.67;;;12.90;;
39300;SDS011;25019;42.626;23.380;2024-02-28T08:19:08;20.63;;;13.00;;
39300;SDS011;25019;42.626;23.380;2024-02-28T08:21:34;21.97;;;13.27;;
39300;SDS011;25019;42.626;23.380;2024-02-28T08:24:00;21.93;;;12.47;;
39300;SDS011;25019;42.626;23.380;2024-02-28T08:26:30;22.07;;;11.93;;
39300;SDS011;25019;42.626;23.380;2024-02-28T08:29:14;17.67;;;11.43;;
39300;SDS011;25019;42.626;23.380;2024-02-28T08:31:41;21.70;;;12.80;;
39300;SDS011;25019;42.626;23.380;2024-02-28T08:34:08;20.57;;;12.90;;
39300;SDS011;25019;42.626;23.380;2024-02-28T08:36:34;23.50;;;12.60;;
39300;SDS011;25019;42.626;23.380;2024-02-28T08:39:00;20.77;;;11.53;;
39300;SDS011;25019;42.626;23.380;2024-02-28T08:41:26;23.43;;;11.77;;
39300;SDS011;25019;42.626;23.380;2024-02-28T08:43:52;16.80;;;10.77;;
39300;SDS011;25019;42.626;23.380;2024-02-28T08:46:18;19.87;;;11.47;;
39300;SDS011;25019;42.626;23.380;2024-02-28T08:48:43;21.60;;;12.17;;
39300;SDS011;25019;42.626;23.380;2024-02-28T08:51:10;18.33;;;11.40;;
39300;SDS011;25019;42.626;23.380;2024-02-28T08:53:37;19.63;;;11.67;;
39300;SDS011;25019;42.626;23.380;2024-02-28T08:56:02;18.53;;;11.07;;
39300;SDS011;25019;42.626;23.380;2024-02-28T08:58:28;21.87;;;12.60;;
39300;SDS011;25019;42.626;23.380;2024-02-28T09:00:54;19.87;;;11.13;;
39300;SDS011;25019;42.626;23.380;2024-02-28T09:03:19;20.33;;;11.07;;
39300;SDS011;25019;42.626;23.380;2024-02-28T09:05:47;22.80;;;11.90;;
39300;SDS011;25019;42.626;23.380;2024-02-28T09:08:13;22.70;;;11.57;;
39300;SDS011;25019;42.626;23.380;2024-02-28T09:10:39;20.33;;;12.37;;
39300;SDS011;25019;42.626;23.380;2024-02-28T09:13:05;24.13;;;11.23;;
39300;SDS011;25019;42.626;23.380;2024-02-28T09:15:32;20.77;;;11.37;;
39300;SDS011;25019;42.626;23.380;2024-02-28T09:17:59;18.40;;;11.33;;
39300;SDS011;25019;42.626;23.380;2024-02-28T09:20:26;18.77;;;10.87;;
39300;SDS011;25019;42.626;23.380;2024-02-28T09:22:51;18.40;;;10.20;;
39300;SDS011;25019;42.626;23.380;2024-02-28T09:25:17;17.47;;;11.03;;
39300;SDS011;25019;42.626;23.380;2024-02-28T09:27:43;20.33;;;11.00;;
39300;SDS011;25019;42.626;23.380;2024-02-28T09:30:09;19.80;;;11.43;;
39300;SDS011;25019;42.626;23.380;2024-02-28T09:32:35;20.73;;;12.47;;
39300;SDS011;25019;42.626;23.380;2024-02-28T09:35:02;15.57;;;10.67;;
39300;SDS011;25019;42.626;23.380;2024-02-28T09:37:29;17.03;;;10.67;;
39300;SDS011;25019;42.626;23.380;2024-02-28T09:39:57;22.23;;;10.10;;
39300;SDS011;25019;42.626;23.380;2024-02-28T09:42:23;15.57;;;10.37;;
39300;SDS011;25019;42.626;23.380;2024-02-28T09:44:49;18.87;;;11.27;;
39300;SDS011;25019;42.626;23.380;2024-02-28T09:47:14;17.20;;;11.30;;
39300;SDS011;25019;42.626;23.380;2024-02-28T09:49:41;19.27;;;10.87;;
39300;SDS011;25019;42.626;23.380;2024-02-28T09:52:08;18.17;;;10.07;;
39300;SDS011;25019;42.626;23.380;2024-02-28T09:54:34;18.40;;;10.47;;
39300;SDS011;25019;42.626;23.380;2024-02-28T09:56:59;15.87;;;10.57;;
39300;SDS011;25019;42.626;23.380;2024-02-28T09:59:26;16.43;;;10.10;;
39300;SDS011;25019;42.626;23.380;2024-02-28T10:01:56;16.63;;;10.87;;
39300;SDS011;25019;42.626;23.380;2024-02-28T10:04:26;15.33;;;10.73;;
39300;SDS011;25019;42.626;23.380;2024-02-28T10:06:55;15.80;;;10.57;;
39300;SDS011;25019;42.626;23.380;2024-02-28T10:09:21;16.40;;;10.10;;
39300;SDS011;25019;42.626;23.380;2024-02-28T10:11:47;19.80;;;10.20;;
39300;SDS011;25019;42.626;23.380;2024-02-28T10:14:16;16.63;;;10.50;;
39300;SDS011;25019;42.626;23.380;2024-02-28T10:16:45;14.63;;;8.73;;
39300;SDS011;25019;42.626;23.380;2024-02-28T10:19:11;17.57;;;9.77;;
39300;SDS011;25019;42.626;23.380;2024-02-28T10:21:36;12.83;;;9.23;;
39300;SDS011;25019;42.626;23.380;2024-02-28T10:24:02;15.80;;;9.30;;
39300;SDS011;25019;42.626;23.380;2024-02-28T10:26:28;14.23;;;9.13;;
39300;SDS011;25019;42.626;23.380;2024-02-28T10:28:57;14.07;;;8.90;;
39300;SDS011;25019;42.626;23.380;2024-02-28T10:31:22;15.40;;;9.47;;
39300;SDS011;25019;42.626;23.380;2024-02-28T10:33:48;17.07;;;8.87;;
39300;SDS011;25019;42.626;23.380;2024-02-28T10:36:14;14.37;;;8.77;;
39300;SDS011;25019;42.626;23.380;2024-02-28T10:38:40;13.17;;;8.90;;
39300;SDS011;25019;42.626;23.380;2024-02-28T10:41:06;11.20;;;7.47;;
39300;SDS011;25019;42.626;23.380;2024-02-28T10:43:32;11.30;;;7.53;;
39300;SDS011;25019;42.626;23.380;2024-02-28T10:46:00;12.50;;;7.17;;
39300;SDS011;25019;42.626;23.380;2024-02-28T10:48:26;12.67;;;7.03;;
39300;SDS011;25019;42.626;23.380;2024-02-28T10:50:52;12.37;;;7.70;;
39300;SDS011;25019;42.626;23.380;2024-02-28T10:53:26;15.63;;;7.77;;
39300;SDS011;25019;42.626;23.380;2024-02-28T10:56:09;13.50;;;6.97;;
39300;SDS011;25019;42.626;23.380;2024-02-28T10:58:36;10.43;;;6.87;;
39300;SDS011;25019;42.626;23.380;2024-02-28T11:01:08;11.37;;;6.53;;
39300;SDS011;25019;42.626;23.380;2024-02-28T11:03:34;11.23;;;6.90;;
39300;SDS011;25019;42.626;23.380;2024-02-28T11:06:00;12.70;;;6.50;;
39300;SDS011;25019;42.626;23.380;2024-02-28T11:08:29;9.47;;;5.47;;
39300;SDS011;25019;42.626;23.380;2024-02-28T11:11:02;9.90;;;5.47;;
39300;SDS011;25019;42.626;23.380;2024-02-28T11:13:33;8.47;;;4.73;;
39300;SDS011;25019;42.626;23.380;2024-02-28T11:16:09;11.70;;;4.70;;
39300;SDS011;25019;42.626;23.380;2024-02-28T11:18:35;7.73;;;4.60;;
39300;SDS011;25019;42.626;23.380;2024-02-28T11:21:01;8.33;;;4.97;;
39300;SDS011;25019;42.626;23.380;2024-02-28T11:23:37;8.17;;;4.97;;
39300;SDS011;25019;42.626;23.380;2024-02-28T11:26:03;10.10;;;5.37;;
39300;SDS011;25019;42.626;23.380;2024-02-28T11:28:29;7.00;;;4.97;;
39300;SDS011;25019;42.626;23.380;2024-02-28T11:30:54;10.57;;;5.00;;
39300;SDS011;25019;42.626;23.380;2024-02-28T11:33:21;10.33;;;5.37;;
39300;SDS011;25019;42.626;23.380;2024-02-28T11:35:59;8.77;;;5.30;;
39300;SDS011;25019;42.626;23.380;2024-02-28T11:38:25;8.07;;;5.47;;
39300;SDS011;25019;42.626;23.380;2024-02-28T11:40:51;8.37;;;5.67;;
39300;SDS011;25019;42.626;23.380;2024-02-28T11:43:17;9.17;;;5.00;;
39300;SDS011;25019;42.626;23.380;2024-02-28T11:45:43;10.63;;;5.40;;
39300;SDS011;25019;42.626;23.380;2024-02-28T11:48:12;8.77;;;5.83;;
39300;SDS011;25019;42.626;23.380;2024-02-28T11:50:39;9.53;;;7.00;;
39300;SDS011;25019;42.626;23.380;2024-02-28T11:53:05;10.67;;;6.40;;
39300;SDS011;25019;42.626;23.380;2024-02-28T11:55:32;8.93;;;6.37;;
39300;SDS011;25019;42.626;23.380;2024-02-28T11:57:58;8.23;;;5.87;;
39300;SDS011;25019;42.626;23.380;2024-02-28T12:00:24;11.10;;;6.13;;
39300;SDS011;25019;42.626;23.380;2024-02-28T12:02:50;10.50;;;6.07;;
39300;SDS011;25019;42.626;23.380;2024-02-28T12:05:16;9.63;;;5.97;;
39300;SDS011;25019;42.626;23.380;2024-02-28T12:07:41;8.87;;;6.07;;
39300;SDS011;25019;42.626;23.380;2024-02-28T12:10:08;8.37;;;6.10;;
39300;SDS011;25019;42.626;23.380;2024-02-28T12:12:34;9.63;;;6.13;;
39300;SDS011;25019;42.626;23.380;2024-02-28T12:15:01;12.20;;;6.20;;
39300;SDS011;25019;42.626;23.380;2024-02-28T12:17:30;13.27;;;6.20;;
39300;SDS011;25019;42.626;23.380;2024-02-28T12:20:01;11.37;;;6.63;;
39300;SDS011;25019;42.626;23.380;2024-02-28T12:22:26;9.57;;;6.30;;
39300;SDS011;25019;42.626;23.380;2024-02-28T12:24:53;13.27;;;7.77;;
39300;SDS011;25019;42.626;23.380;2024-02-28T12:27:18;13.00;;;7.53;;
39300;SDS011;25019;42.626;23.380;2024-02-28T12:29:44;9.80;;;7.10;;
39300;SDS011;25019;42.626;23.380;2024-02-28T12:32:10;11.03;;;6.33;;
39300;SDS011;25019;42.626;23.380;2024-02-28T12:34:37;12.50;;;6.67;;
39300;SDS011;25019;42.626;23.380;2024-02-28T12:37:03;10.03;;;7.33;;
39300;SDS011;25019;42.626;23.380;2024-02-28T12:39:30;12.87;;;7.43;;
39300;SDS011;25019;42.626;23.380;2024-02-28T12:41:57;11.10;;;7.40;;
39300;SDS011;25019;42.626;23.380;2024-02-28T12:44:22;12.97;;;7.27;;
39300;SDS011;25019;42.626;23.380;2024-02-28T12:46:48;10.03;;;7.40;;
39300;SDS011;25019;42.626;23.380;2024-02-28T12:49:14;11.23;;;6.73;;
39300;SDS011;25019;42.626;23.380;2024-02-28T12:51:40;11.47;;;7.50;;
39300;SDS011;25019;42.626;23.380;2024-02-28T12:54:08;11.60;;;7.07;;
39300;SDS011;25019;42.626;23.380;2024-02-28T12:56:37;10.00;;;6.47;;
39300;SDS011;25019;42.626;23.380;2024-02-28T12:59:04;9.80;;;6.83;;
39300;SDS011;25019;42.626;23.380;2024-02-28T13:01:32;10.13;;;6.63;;
39300;SDS011;25019;42.626;23.380;2024-02-28T13:03:58;8.77;;;6.30;;
39300;SDS011;25019;42.626;23.380;2024-02-28T13:06:24;9.17;;;6.33;;
39300;SDS011;25019;42.626;23.380;2024-02-28T13:08:50;14.10;;;6.43;;
39300;SDS011;25019;42.626;23.380;2024-02-28T13:11:18;8.77;;;6.10;;
39300;SDS011;25019;42.626;23.380;2024-02-28T13:13:46;10.07;;;6.07;;
39300;SDS011;25019;42.626;23.380;2024-02-28T13:16:12;13.43;;;6.63;;
39300;SDS011;25019;42.626;23.380;2024-02-28T13:18:38;10.57;;;6.30;;
39300;SDS011;25019;42.626;23.380;2024-02-28T13:21:04;8.20;;;5.63;;
39300;SDS011;25019;42.626;23.380;2024-02-28T13:23:30;10.53;;;5.67;;
39300;SDS011;25019;42.626;23.380;2024-02-28T13:25:59;9.97;;;5.77;;
39300;SDS011;25019;42.626;23.380;2024-02-28T13:28:26;11.20;;;5.53;;
39300;SDS011;25019;42.626;23.380;2024-02-28T13:31:01;9.47;;;5.20;;
39300;SDS011;25019;42.626;23.380;2024-02-28T13:33:29;10.63;;;6.27;;
39300;SDS011;25019;42.626;23.380;2024-02-28T13:35:55;11.10;;;5.90;;
39300;SDS011;25019;42.626;23.380;2024-02-28T13:38:21;10.93;;;6.97;;
39300;SDS011;25019;42.626;23.380;2024-02-28T13:40:47;9.13;;;5.93;;
39300;SDS011;25019;42.626;23.380;2024-02-28T13:43:13;12.73;;;7.13;;
39300;SDS011;25019;42.626;23.380;2024-02-28T13:45:39;12.00;;;7.17;;
39300;SDS011;25019;42.626;23.380;2024-02-28T13:48:18;12.07;;;7.30;;
39300;SDS011;25019;42.626;23.380;2024-02-28T13:50:52;13.70;;;6.67;;
39300;SDS011;25019;42.626;23.380;2024-02-28T13:53:18;16.90;;;7.00;;
39300;SDS011;25019;42.626;23.380;2024-02-28T13:55:47;10.27;;;6.83;;
39300;SDS011;25019;42.626;23.380;2024-02-28T13:58:13;10.37;;;6.30;;
39300;SDS011;25019;42.626;23.380;2024-02-28T14:00:43;13.33;;;6.47;;
39300;SDS011;25019;42.626;23.380;2024-02-28T14:03:10;10.03;;;6.53;;
39300;SDS011;25019;42.626;23.380;2024-02-28T14:05:36;13.57;;;7.00;;
39300;SDS011;25019;42.626;23.380;2024-02-28T14:08:02;13.27;;;6.73;;
39300;SDS011;25019;42.626;23.380;2024-02-28T14:10:33;12.23;;;6.43;;